Time;durP1;ratioP1;P1;durP2;ratioP2;P2;SDS_P1;SDS_P2;PMS_P1;PMS_P2;Temp;Humidity;BMP_temperature;BMP_pressure;BME280_temperature;BME280_humidity;BME280_pressure;Samples;Min_cycle;Max_cycle;Signal;HPM_P1;HPM_P2
2021/04/21 00:00:54;;;;;;;19.13;15.02;;;12.30;66.70;;;;;;5014425;28;20174;-76
2021/04/21 00:03:22;;;;;;;21.92;15.70;;;12.30;67.10;;;;;;5047595;28;20551;-76
2021/04/21 00:05:50;;;;;;;18.27;15.93;;;12.30;67.30;;;;;;5032214;28;20176;-75
2021/04/21 00:08:16;;;;;;;20.27;15.65;;;12.20;67.70;;;;;;5031627;28;20204;-75
2021/04/21 00:10:48;;;;;;;16.75;15.05;;;12.20;67.90;;;;;;5047202;28;20541;-76
2021/04/21 00:13:15;;;;;;;16.23;14.52;;;12.20;68.20;;;;;;5032152;28;20219;-76
2021/04/21 00:15:41;;;;;;;16.58;14.80;;;12.20;68.70;;;;;;5014238;28;20170;-76
2021/04/21 00:18:08;;;;;;;15.57;13.98;;;12.20;68.90;;;;;;5031575;28;20190;-75
2021/04/21 00:20:35;;;;;;;16.95;15.25;;;12.10;69.20;;;;;;5017483;28;20201;-76
2021/04/21 00:23:06;;;;;;;17.80;15.13;;;12.10;69.70;;;;;;5032218;28;20173;-76
2021/04/21 00:25:36;;;;;;;18.42;16.52;;;12.10;70.40;;;;;;5031877;28;20193;-76
2021/04/21 00:28:05;;;;;;;16.02;14.43;;;12.00;70.60;;;;;;5030956;28;20549;-75
2021/04/21 00:30:32;;;;;;;16.75;14.95;;;12.00;70.80;;;;;;5047120;28;20219;-76
2021/04/21 00:33:00;;;;;;;17.27;14.55;;;12.00;71.20;;;;;;5014207;28;20499;-76
2021/04/21 00:35:38;;;;;;;15.75;14.25;;;12.00;71.70;;;;;;5031753;28;20169;-75
2021/04/21 00:38:11;;;;;;;16.02;14.32;;;11.90;72.50;;;;;;5031227;28;20189;-76
2021/04/21 00:40:42;;;;;;;15.32;13.77;;;11.90;72.70;;;;;;5031697;28;20556;-76
2021/04/21 00:43:11;;;;;;;14.55;13.15;;;11.90;72.80;;;;;;5031613;28;20188;-75
2021/04/21 00:45:44;;;;;;;16.33;14.68;;;11.80;73.10;;;;;;5047022;28;20252;-76
2021/04/21 00:48:44;;;;;;;17.83;15.25;;;11.80;74.00;;;;;;5033326;28;20189;-75
2021/04/21 00:51:13;;;;;;;15.70;14.13;;;11.80;74.90;;;;;;5031552;28;20178;-76
2021/04/21 00:53:49;;;;;;;16.50;14.80;;;11.80;74.10;;;;;;5014051;28;20174;-77
2021/04/21 00:56:37;;;;;;;17.45;15.55;;;11.70;74.80;;;;;;4997545;28;20193;-75
2021/04/21 00:59:43;;;;;;;16.20;14.07;;;11.70;75.40;;;;;;5015119;28;20209;-75
2021/04/21 01:02:11;;;;;;;17.95;15.15;;;11.70;76.10;;;;;;4997529;28;20300;-75
2021/04/21 01:04:42;;;;;;;18.17;16.27;;;11.70;75.30;;;;;;5046638;28;20291;-74
2021/04/21 01:07:10;;;;;;;15.85;14.25;;;11.60;76.40;;;;;;4997055;28;20253;-75
2021/04/21 01:09:39;;;;;;;18.77;16.83;;;11.60;76.30;;;;;;5013699;28;20282;-75
2021/04/21 01:12:09;;;;;;;19.42;17.60;;;11.60;77.00;;;;;;5013744;28;20216;-75
2021/04/21 01:14:43;;;;;;;19.77;16.23;;;11.50;77.20;;;;;;4997053;28;20182;-75
2021/04/21 01:17:13;;;;;;;20.10;18.08;;;11.50;77.60;;;;;;5031060;28;20166;-75
2021/04/21 01:19:42;;;;;;;18.80;16.88;;;11.50;78.10;;;;;;5013340;28;20293;-75
2021/04/21 01:22:26;;;;;;;19.92;17.90;;;11.50;78.70;;;;;;5013598;28;20626;-75
2021/04/21 01:25:02;;;;;;;18.55;16.73;;;11.50;79.60;;;;;;5030145;28;20626;-75
2021/04/21 01:27:52;;;;;;;20.73;18.20;;;11.40;79.90;;;;;;5029765;28;20537;-75
2021/04/21 01:30:20;;;;;;;18.85;16.88;;;11.40;81.60;;;;;;5031130;28;20216;-75
2021/04/21 01:32:48;;;;;;;20.38;18.25;;;11.40;80.00;;;;;;5031102;28;20173;-75
2021/04/21 01:35:20;;;;;;;22.48;17.95;;;11.30;80.30;;;;;;5014375;28;20162;-75
2021/04/21 01:37:47;;;;;;;19.95;17.85;;;11.30;81.00;;;;;;5046282;28;20228;-76
2021/04/21 01:40:20;;;;;;;16.92;15.25;;;11.30;81.30;;;;;;5034882;28;20615;-76
2021/04/21 01:42:49;;;;;;;21.70;17.38;;;11.20;81.80;;;;;;5034490;28;20241;-76
2021/04/21 01:45:23;;;;;;;26.23;18.60;;;11.20;82.30;;;;;;5034841;28;20162;-76
2021/04/21 01:47:55;;;;;;;19.75;17.20;;;11.20;82.80;;;;;;5016441;28;20177;-75
2021/04/21 01:50:21;;;;;;;21.33;18.40;;;11.20;83.30;;;;;;5034759;28;20208;-75
2021/04/21 01:53:13;;;;;;;24.65;20.80;;;11.20;83.70;;;;;;5033022;28;20565;-76
2021/04/21 01:55:52;;;;;;;21.08;18.88;;;11.10;84.90;;;;;;4998131;28;20276;-75
2021/04/21 01:58:28;;;;;;;19.30;17.30;;;11.20;85.60;;;;;;5049507;28;20224;-74
2021/04/21 02:01:00;;;;;;;20.48;18.25;;;11.10;85.60;;;;;;5034167;28;20575;-76
2021/04/21 02:03:42;;;;;;;18.15;16.08;;;11.10;85.70;;;;;;5016489;28;20162;-75
2021/04/21 02:06:41;;;;;;;22.20;17.63;;;11.10;87.20;;;;;;5049562;28;20745;-74
2021/04/21 02:09:33;;;;;;;18.27;16.23;;;11.10;87.70;;;;;;5034254;28;20711;-76
2021/04/21 02:12:13;;;;;;;18.08;16.17;;;11.20;88.00;;;;;;5017104;28;20208;-76
2021/04/21 02:14:57;;;;;;;18.55;16.65;;;11.10;88.20;;;;;;5034257;28;20173;-76
2021/04/21 02:17:41;;;;;;;18.10;16.33;;;11.10;88.60;;;;;;5033675;28;20193;-75
2021/04/21 02:20:19;;;;;;;17.95;16.05;;;11.10;89.20;;;;;;5033902;28;20204;-74
2021/04/21 02:22:53;;;;;;;16.90;15.25;;;11.20;89.20;;;;;;5049453;28;20191;-75
2021/04/21 02:25:42;;;;;;;16.95;15.15;;;11.20;89.40;;;;;;5032800;28;20690;-76
2021/04/21 02:28:24;;;;;;;18.00;16.30;;;11.20;90.10;;;;;;5015924;28;20201;-75
2021/04/21 02:30:54;;;;;;;18.58;16.20;;;11.20;90.40;;;;;;5032621;28;20457;-75
2021/04/21 02:33:30;;;;;;;19.48;17.27;;;11.20;90.00;;;;;;5044225;23;20235;-77
2021/04/21 02:36:03;;;;;;;17.40;15.60;;;11.20;90.40;;;;;;5025413;28;20165;-77
2021/04/21 02:38:40;;;;;;;18.48;16.58;;;11.20;90.60;;;;;;5050431;28;20246;-78
2021/04/21 02:41:21;;;;;;;18.75;16.48;;;11.20;91.00;;;;;;5020255;28;20563;-78
2021/04/21 02:44:17;;;;;;;19.42;17.27;;;11.20;90.60;;;;;;5027320;28;20680;-78
2021/04/21 02:46:56;;;;;;;21.55;16.05;;;11.20;91.40;;;;;;5043646;28;20252;-78
2021/04/21 02:49:34;;;;;;;19.17;17.08;;;11.20;90.90;;;;;;5000806;28;20173;-78
2021/04/21 02:52:09;;;;;;;19.83;17.85;;;11.10;91.00;;;;;;5035338;28;20174;-78
2021/04/21 02:54:47;;;;;;;21.95;19.70;;;11.10;91.30;;;;;;5038162;28;20786;-78
2021/04/21 02:57:26;;;;;;;23.45;20.88;;;11.00;91.80;;;;;;5024618;28;20194;-78
2021/04/21 02:59:57;;;;;;;24.17;20.52;;;11.00;91.70;;;;;;5042512;28;20554;-78
2021/04/21 03:02:34;;;;;;;23.73;20.88;;;10.90;91.80;;;;;;5035260;28;20161;-77
2021/04/21 03:05:07;;;;;;;24.13;21.13;;;10.90;92.20;;;;;;5052943;28;20169;-77
2021/04/21 03:07:53;;;;;;;24.35;21.70;;;10.90;92.20;;;;;;5052823;28;20177;-77
2021/04/21 03:10:22;;;;;;;23.35;20.92;;;10.90;92.40;;;;;;5053198;28;20195;-77
2021/04/21 03:12:54;;;;;;;24.52;22.02;;;10.90;92.10;;;;;;5052782;28;20609;-77
2021/04/21 03:15:21;;;;;;;26.25;22.70;;;10.80;92.40;;;;;;5035047;28;20184;-77
2021/04/21 03:17:52;;;;;;;25.00;22.15;;;10.80;92.40;;;;;;5052538;28;20174;-77
2021/04/21 03:20:20;;;;;;;23.23;20.83;;;10.80;92.60;;;;;;5052724;28;20559;-77
2021/04/21 03:23:03;;;;;;;23.63;21.17;;;10.80;92.80;;;;;;5034890;28;20231;-77
2021/04/21 03:25:34;;;;;;;23.73;21.30;;;10.70;93.30;;;;;;5052792;28;20172;-77
2021/04/21 03:28:03;;;;;;;22.00;19.65;;;10.70;92.90;;;;;;5034628;28;20724;-79
2021/04/21 03:30:31;;;;;;;22.58;20.38;;;10.70;93.60;;;;;;5034750;28;20691;-77
2021/04/21 03:33:09;;;;;;;24.23;21.73;;;10.70;93.20;;;;;;5052479;28;20683;-78
2021/04/21 03:35:36;;;;;;;22.88;20.42;;;10.70;93.90;;;;;;5057827;28;20562;-78
2021/04/21 03:38:08;;;;;;;24.45;21.73;;;10.70;93.60;;;;;;5051868;28;20173;-78
2021/04/21 03:40:35;;;;;;;22.05;19.85;;;10.70;93.80;;;;;;5018672;28;20665;-77
2021/04/21 03:43:02;;;;;;;24.40;22.00;;;10.70;93.90;;;;;;5034780;28;20197;-77
2021/04/21 03:45:29;;;;;;;27.38;22.65;;;10.70;94.10;;;;;;5053068;28;20188;-78
2021/04/21 03:47:55;;;;;;;26.10;23.17;;;10.70;94.20;;;;;;5052488;28;20214;-78
2021/04/21 03:50:23;;;;;;;24.13;21.73;;;10.70;94.30;;;;;;5052804;28;20695;-78
2021/04/21 03:52:56;;;;;;;27.98;23.13;;;10.70;94.60;;;;;;5044703;28;20204;-77
2021/04/21 03:55:22;;;;;;;24.40;21.80;;;10.70;94.90;;;;;;5065447;28;20165;-78
2021/04/21 03:57:53;;;;;;;26.17;23.38;;;10.60;94.70;;;;;;5049154;28;20173;-78
2021/04/21 04:00:21;;;;;;;26.75;23.67;;;10.60;94.90;;;;;;5055899;28;20672;-77
2021/04/21 04:02:53;;;;;;;26.20;23.40;;;10.60;95.00;;;;;;5033524;28;20193;-78
2021/04/21 04:05:26;;;;;;;25.27;22.27;;;10.60;95.40;;;;;;5052719;28;20165;-78
2021/04/21 04:07:56;;;;;;;25.40;22.17;;;10.60;95.50;;;;;;5034963;28;20593;-79
2021/04/21 04:10:25;;;;;;;26.08;23.45;;;10.60;95.50;;;;;;5052657;28;20173;-78
2021/04/21 04:12:54;;;;;;;28.45;22.92;;;10.60;95.60;;;;;;5038620;28;20189;-77
2021/04/21 04:15:21;;;;;;;27.27;24.42;;;10.60;95.80;;;;;;5052296;28;20259;-79
2021/04/21 04:17:51;;;;;;;24.50;22.05;;;10.60;95.90;;;;;;5033732;28;20204;-79
2021/04/21 04:20:17;;;;;;;28.20;23.55;;;10.60;96.10;;;;;;5033922;28;20201;-79
2021/04/21 04:22:51;;;;;;;26.55;23.75;;;10.60;96.00;;;;;;5051738;28;20177;-79
2021/04/21 04:25:18;;;;;;;29.50;24.38;;;10.60;96.60;;;;;;5033958;28;20267;-79
2021/04/21 04:27:46;;;;;;;24.63;22.20;;;10.70;96.50;;;;;;5051609;28;20200;-78
2021/04/21 04:30:13;;;;;;;26.08;23.05;;;10.70;96.60;;;;;;5033824;28;20172;-78
2021/04/21 04:32:41;;;;;;;28.88;23.13;;;10.70;96.70;;;;;;5051462;28;20197;-79
2021/04/21 04:35:09;;;;;;;28.27;23.35;;;10.70;96.90;;;;;;5051656;28;20177;-79
2021/04/21 04:37:40;;;;;;;27.58;24.70;;;10.80;97.10;;;;;;5051301;28;20686;-78
2021/04/21 04:40:25;;;;;;;29.30;25.23;;;10.80;97.10;;;;;;5051487;28;21030;-78
2021/04/21 04:42:51;;;;;;;24.67;21.83;;;10.90;97.90;;;;;;5051533;28;20189;-79
2021/04/21 04:45:17;;;;;;;25.83;23.13;;;10.90;97.30;;;;;;5051603;28;20172;-78
2021/04/21 04:47:52;;;;;;;27.35;23.85;;;10.90;97.40;;;;;;5052244;28;20173;-78
2021/04/21 04:50:23;;;;;;;26.88;24.08;;;10.90;97.60;;;;;;5054042;28;20161;-78
2021/04/21 04:52:52;;;;;;;24.27;21.73;;;11.00;97.90;;;;;;5051401;28;20185;-78
2021/04/21 04:55:20;;;;;;;27.90;22.10;;;11.00;97.70;;;;;;5033637;28;20264;-78
2021/04/21 04:57:48;;;;;;;27.48;24.58;;;11.00;97.70;;;;;;5050985;28;20796;-77
2021/04/21 05:00:17;;;;;;;22.55;20.33;;;11.00;97.80;;;;;;5051232;28;20231;-78
2021/04/21 05:03:19;;;;;;;24.95;22.35;;;11.00;97.90;;;;;;5033827;28;20240;-78
2021/04/21 05:05:45;;;;;;;29.77;22.98;;;11.00;98.30;;;;;;5011194;28;20599;-79
2021/04/21 05:08:13;;;;;;;25.33;21.85;;;11.00;97.80;;;;;;5035960;28;20556;-79
2021/04/21 05:10:47;;;;;;;28.88;24.70;;;11.00;98.00;;;;;;5052688;28;20181;-80
2021/04/21 05:13:16;;;;;;;26.40;23.77;;;11.10;98.50;;;;;;5053172;28;20571;-79
2021/04/21 05:15:51;;;;;;;31.38;24.60;;;11.10;98.30;;;;;;5056564;28;20183;-78
2021/04/21 05:18:25;;;;;;;27.13;23.02;;;11.10;98.70;;;;;;5056146;28;20196;-80
2021/04/21 05:21:25;;;;;;;26.27;23.38;;;11.10;98.70;;;;;;5059474;28;20246;-81
2021/04/21 05:24:11;;;;;;;27.60;24.60;;;11.10;99.00;;;;;;5057898;28;20212;-80
2021/04/21 05:27:12;;;;;;;27.05;22.73;;;11.20;98.90;;;;;;5043836;28;20171;-81
2021/04/21 05:29:42;;;;;;;26.33;23.50;;;11.20;99.00;;;;;;5037862;28;20724;-80
2021/04/21 05:32:16;;;;;;;24.45;21.95;;;11.30;99.00;;;;;;5053967;28;20246;-79
2021/04/21 05:35:10;;;;;;;30.10;23.48;;;11.30;99.40;;;;;;5056276;28;20536;-80
2021/04/21 05:38:18;;;;;;;27.88;23.27;;;11.40;99.70;;;;;;5054780;28;20200;-80
2021/04/21 05:40:55;;;;;;;29.83;25.63;;;11.50;99.80;;;;;;5007789;28;20216;-79
2021/04/21 05:43:59;;;;;;;28.45;25.10;;;11.70;99.90;;;;;;5036887;28;20688;-78
2021/04/21 05:47:01;;;;;;;26.60;23.42;;;11.80;99.90;;;;;;5036266;28;20208;-79
2021/04/21 05:50:00;;;;;;;27.65;24.83;;;11.90;99.90;;;;;;5054436;28;20168;-78
2021/04/21 05:53:01;;;;;;;30.02;23.40;;;12.10;99.90;;;;;;5054725;28;20185;-78
2021/04/21 05:55:45;;;;;;;28.70;24.58;;;12.20;99.90;;;;;;5006170;28;20187;-79
2021/04/21 05:58:41;;;;;;;27.88;23.63;;;12.30;99.90;;;;;;5054140;28;20161;-79
2021/04/21 06:01:16;;;;;;;25.50;22.92;;;12.50;99.90;;;;;;5033500;28;20526;-81
2021/04/21 06:03:45;;;;;;;27.60;24.30;;;12.70;99.90;;;;;;5047942;28;20212;-79
2021/04/21 06:06:11;;;;;;;28.20;25.20;;;12.80;99.90;;;;;;5044936;28;20181;-78
2021/04/21 06:08:37;;;;;;;29.02;25.92;;;12.90;99.90;;;;;;5053264;28;20173;-79
2021/04/21 06:11:03;;;;;;;31.10;25.77;;;13.00;99.90;;;;;;5037771;28;20173;-78
2021/04/21 06:13:33;;;;;;;29.77;26.67;;;13.20;99.90;;;;;;5016457;28;20561;-78
2021/04/21 06:16:00;;;;;;;30.52;27.42;;;13.30;99.90;;;;;;5034285;28;20588;-79
2021/04/21 06:18:26;;;;;;;32.72;28.92;;;13.40;99.90;;;;;;5040800;28;20176;-79
2021/04/21 06:20:53;;;;;;;33.85;27.23;;;13.50;99.90;;;;;;5039739;28;20196;-79
2021/04/21 06:23:21;;;;;;;29.85;26.75;;;13.60;99.90;;;;;;5056082;28;20200;-79
2021/04/21 06:25:49;;;;;;;34.28;28.25;;;13.70;99.90;;;;;;5056500;28;20157;-79
2021/04/21 06:28:22;;;;;;;33.25;28.10;;;13.80;99.90;;;;;;5020141;28;20648;-80
2021/04/21 06:30:50;;;;;;;31.23;27.95;;;14.00;99.90;;;;;;5055121;28;20259;-80
2021/04/21 06:33:16;;;;;;;29.95;26.75;;;14.10;99.80;;;;;;5053065;28;20308;-79
2021/04/21 06:35:43;;;;;;;30.77;27.05;;;14.20;99.80;;;;;;5045669;28;20227;-79
2021/04/21 06:38:11;;;;;;;31.30;28.13;;;14.30;99.70;;;;;;5016796;28;20177;-79
2021/04/21 06:40:38;;;;;;;28.80;25.85;;;14.40;99.60;;;;;;5016473;28;20305;-79
2021/04/21 06:43:05;;;;;;;26.88;24.23;;;14.50;99.50;;;;;;5032302;28;20284;-79
2021/04/21 06:45:34;;;;;;;32.60;29.30;;;14.60;99.30;;;;;;5034274;28;20158;-80
2021/04/21 06:48:02;;;;;;;29.55;26.55;;;14.70;99.20;;;;;;5032849;28;20173;-79
2021/04/21 06:50:30;;;;;;;31.55;28.02;;;14.80;99.10;;;;;;5033406;28;20248;-78
2021/04/21 06:53:01;;;;;;;36.22;31.10;;;14.80;98.90;;;;;;5033368;28;20212;-80
2021/04/21 06:55:28;;;;;;;34.45;30.50;;;14.90;98.80;;;;;;5032899;28;20252;-79
2021/04/21 06:57:54;;;;;;;34.22;30.75;;;14.90;98.60;;;;;;5015476;28;20201;-80
2021/04/21 07:00:23;;;;;;;35.10;31.27;;;14.90;98.50;;;;;;5046314;28;20284;-80
2021/04/21 07:02:54;;;;;;;33.42;30.02;;;15.00;98.80;;;;;;5019865;28;20189;-79
2021/04/21 07:05:33;;;;;;;30.60;27.45;;;15.00;98.50;;;;;;5054181;28;20173;-79
2021/04/21 07:08:09;;;;;;;33.28;29.38;;;15.00;98.50;;;;;;5052818;28;20191;-80
2021/04/21 07:10:45;;;;;;;34.53;30.80;;;15.10;98.40;;;;;;5053711;28;20271;-80
2021/04/21 07:13:19;;;;;;;32.03;28.58;;;15.10;98.40;;;;;;5036203;28;20189;-80
2021/04/21 07:15:46;;;;;;;29.35;26.15;;;15.10;98.40;;;;;;5054636;28;20541;-80
2021/04/21 07:18:15;;;;;;;30.05;26.95;;;15.10;98.40;;;;;;5056547;28;20177;-79
2021/04/21 07:20:41;;;;;;;33.65;30.02;;;15.20;98.40;;;;;;5053202;28;20189;-80
2021/04/21 07:23:10;;;;;;;34.35;30.70;;;15.20;98.30;;;;;;5053891;28;20185;-80
2021/04/21 07:25:44;;;;;;;33.22;29.75;;;15.20;98.40;;;;;;5053382;28;20173;-80
2021/04/21 07:28:13;;;;;;;32.55;29.33;;;15.20;98.40;;;;;;5053066;28;20177;-80
2021/04/21 07:30:39;;;;;;;29.33;26.45;;;15.30;98.40;;;;;;5053840;28;20173;-79
2021/04/21 07:33:05;;;;;;;33.75;30.00;;;15.30;98.40;;;;;;5036413;28;20205;-79
2021/04/21 07:35:32;;;;;;;31.53;28.37;;;15.30;98.30;;;;;;5039135;28;20184;-79
2021/04/21 07:37:58;;;;;;;27.88;25.17;;;15.30;98.30;;;;;;5054542;28;20628;-79
2021/04/21 07:40:33;;;;;;;33.40;30.00;;;15.40;98.30;;;;;;5038280;28;20212;-79
2021/04/21 07:43:17;;;;;;;33.67;29.98;;;15.40;98.30;;;;;;5055982;28;20230;-79
2021/04/21 07:45:48;;;;;;;32.40;29.10;;;15.40;98.30;;;;;;5038003;28;20662;-79
2021/04/21 07:48:32;;;;;;;32.10;28.60;;;15.50;98.30;;;;;;5035236;28;20208;-80
2021/04/21 07:51:23;;;;;;;30.88;27.77;;;15.50;98.20;;;;;;5053374;28;20570;-79
2021/04/21 07:53:49;;;;;;;34.70;31.10;;;15.60;98.20;;;;;;5055815;28;20192;-80
2021/04/21 07:56:16;;;;;;;30.53;27.07;;;15.70;98.20;;;;;;5021695;28;20575;-79
2021/04/21 07:58:42;;;;;;;35.20;30.00;;;15.70;98.20;;;;;;5051492;28;20192;-79
2021/04/21 08:01:07;;;;;;;32.47;29.17;;;15.80;98.30;;;;;;5051888;28;20181;-79
2021/04/21 08:03:36;;;;;;;32.10;28.80;;;15.90;98.50;;;;;;5051396;28;20195;-78
2021/04/21 08:06:03;;;;;;;35.60;31.80;;;16.00;98.60;;;;;;5034082;28;20564;-78
2021/04/21 08:08:30;;;;;;;33.63;30.40;;;16.10;98.70;;;;;;5033413;28;20190;-79
2021/04/21 08:10:56;;;;;;;34.23;30.70;;;16.30;98.90;;;;;;5051909;28;20177;-79
2021/04/21 08:13:42;;;;;;;34.20;30.70;;;16.70;99.40;;;;;;5034051;28;20975;-79
2021/04/21 08:16:30;;;;;;;32.70;29.03;;;17.20;99.40;;;;;;5052304;28;20580;-79
2021/04/21 08:18:57;;;;;;;31.67;28.37;;;17.60;99.20;;;;;;5033894;28;20683;-80
2021/04/21 08:21:45;;;;;;;31.73;28.60;;;18.00;99.10;;;;;;5052313;28;20609;-79
2021/04/21 08:24:14;;;;;;;31.80;28.63;;;18.30;98.40;;;;;;5052303;28;20598;-79
2021/04/21 08:26:42;;;;;;;31.00;27.77;;;18.80;98.90;;;;;;5052146;28;20578;-79
2021/04/21 08:29:11;;;;;;;30.50;27.43;;;19.40;98.80;;;;;;5051871;28;20563;-79
2021/04/21 08:31:38;;;;;;;29.30;26.07;;;20.00;98.80;;;;;;5041669;28;20657;-79
2021/04/21 08:34:05;;;;;;;28.87;25.67;;;20.60;98.70;;;;;;5053484;23;20703;-77
2021/04/21 08:36:31;;;;;;;29.30;25.90;;;21.10;98.10;;;;;;5038833;28;20620;-78
2021/04/21 08:38:56;;;;;;;27.20;24.70;;;21.50;97.20;;;;;;4993710;28;20628;-78
2021/04/21 08:41:22;;;;;;;27.90;25.20;;;21.80;96.50;;;;;;4994296;28;20581;-78
2021/04/21 08:43:50;;;;;;;27.53;24.90;;;22.10;95.70;;;;;;5011560;28;20186;-78
2021/04/21 08:46:19;;;;;;;27.30;24.70;;;22.50;95.50;;;;;;5016751;28;21174;-78
2021/04/21 08:48:45;;;;;;;26.63;24.03;;;23.00;95.40;;;;;;5018783;28;20619;-78
2021/04/21 08:51:14;;;;;;;24.43;22.20;;;23.60;95.30;;;;;;5038421;28;20583;-79
2021/04/21 08:53:44;;;;;;;25.80;23.43;;;24.00;94.00;;;;;;5004161;28;21221;-78
2021/04/21 08:56:15;;;;;;;28.27;25.67;;;24.50;93.40;;;;;;5004231;28;20584;-77
2021/04/21 08:58:45;;;;;;;30.10;27.27;;;24.60;91.30;;;;;;4987492;28;20584;-78
2021/04/21 09:01:12;;;;;;;28.43;25.63;;;24.40;89.10;;;;;;5019979;28;20584;-78
2021/04/21 09:03:40;;;;;;;29.87;25.50;;;24.20;88.10;;;;;;5019784;28;20706;-78
2021/04/21 09:06:09;;;;;;;26.37;23.77;;;24.10;87.60;;;;;;5038406;28;20560;-78
2021/04/21 09:08:38;;;;;;;26.33;23.70;;;24.10;87.30;;;;;;5020882;28;20975;-78
2021/04/21 09:11:04;;;;;;;29.27;26.37;;;24.00;85.70;;;;;;5038448;28;20571;-78
2021/04/21 09:13:30;;;;;;;27.67;25.17;;;23.80;84.80;;;;;;5021249;28;20649;-77
2021/04/21 09:15:57;;;;;;;25.70;23.40;;;23.60;84.30;;;;;;5020332;28;20674;-78
2021/04/21 09:18:32;;;;;;;28.47;25.87;;;23.50;84.40;;;;;;5038364;28;20555;-78
2021/04/21 09:20:59;;;;;;;27.37;24.73;;;23.40;84.70;;;;;;5023007;28;20646;-77
2021/04/21 09:23:33;;;;;;;26.43;23.83;;;23.20;83.50;;;;;;5022931;28;20596;-77
2021/04/21 09:25:59;;;;;;;24.60;22.30;;;23.10;83.40;;;;;;5043891;28;20571;-77
2021/04/21 09:28:25;;;;;;;27.23;24.80;;;23.00;83.20;;;;;;5025440;28;20572;-77
2021/04/21 09:30:58;;;;;;;26.70;24.10;;;22.90;83.00;;;;;;5024182;28;20177;-77
2021/04/21 09:33:29;;;;;;;24.90;22.57;;;22.80;82.80;;;;;;5026517;28;20236;-77
2021/04/21 09:35:55;;;;;;;27.27;24.67;;;22.70;82.90;;;;;;5003332;28;21131;-76
2021/04/21 09:38:27;;;;;;;25.50;23.10;;;22.70;83.50;;;;;;5037212;28;20663;-77
2021/04/21 09:41:02;;;;;;;24.27;22.10;;;22.70;83.50;;;;;;5019474;28;21090;-77
2021/04/21 09:43:35;;;;;;;26.40;23.90;;;22.70;83.60;;;;;;5019655;28;20615;-76
2021/04/21 09:46:20;;;;;;;29.17;22.50;;;22.80;84.10;;;;;;5004419;28;20610;-78
2021/04/21 09:48:47;;;;;;;26.67;23.87;;;22.90;83.40;;;;;;4986976;28;20629;-77
2021/04/21 09:51:18;;;;;;;23.87;21.57;;;22.90;82.70;;;;;;5019620;28;20561;-77
2021/04/21 09:53:52;;;;;;;22.50;20.30;;;23.00;82.40;;;;;;4986541;28;20634;-76
2021/04/21 09:56:20;;;;;;;24.10;21.70;;;23.00;82.00;;;;;;5036819;28;20683;-77
2021/04/21 09:58:57;;;;;;;22.90;20.80;;;23.20;82.60;;;;;;5004462;28;20572;-76
2021/04/21 10:01:35;;;;;;;24.23;21.63;;;23.40;82.60;;;;;;5020242;28;20667;-77
2021/04/21 10:04:12;;;;;;;23.67;21.30;;;23.60;82.20;;;;;;5020327;28;20998;-76
2021/04/21 10:06:57;;;;;;;24.17;21.80;;;23.70;81.20;;;;;;5036025;28;20576;-77
2021/04/21 10:09:39;;;;;;;22.17;20.13;;;23.80;80.70;;;;;;5031161;28;20697;-77
2021/04/21 10:12:23;;;;;;;22.50;20.53;;;24.00;80.60;;;;;;5014803;28;20968;-77
2021/04/21 10:15:01;;;;;;;21.93;19.83;;;24.30;80.80;;;;;;4998362;28;20609;-77
2021/04/21 10:17:33;;;;;;;19.80;17.93;;;24.70;80.60;;;;;;4997524;28;20628;-77
2021/04/21 10:19:59;;;;;;;20.87;19.17;;;25.10;81.30;;;;;;5014967;28;20623;-77
2021/04/21 10:22:25;;;;;;;21.30;19.20;;;25.40;79.80;;;;;;4980947;28;20570;-77
2021/04/21 10:24:53;;;;;;;24.23;21.67;;;25.50;77.70;;;;;;4997179;28;20955;-76
2021/04/21 10:27:19;;;;;;;18.97;17.20;;;25.50;76.20;;;;;;4995716;28;20576;-77
2021/04/21 10:29:45;;;;;;;18.73;17.20;;;25.60;75.80;;;;;;4996726;28;20573;-77
2021/04/21 10:32:15;;;;;;;19.50;17.70;;;25.60;74.70;;;;;;4997097;28;20580;-78
2021/04/21 10:34:43;;;;;;;21.20;19.20;;;25.70;74.20;;;;;;5019987;28;20990;-78
2021/04/21 10:37:11;;;;;;;29.30;26.70;;;25.80;73.30;;;;;;4999812;28;20711;-78
2021/04/21 10:39:38;;;;;;;20.23;18.53;;;25.60;68.60;;;;;;5001048;28;20643;-79
2021/04/21 10:42:18;;;;;;;20.03;16.60;;;25.80;70.30;;;;;;5003394;28;20927;-80
2021/04/21 10:44:48;;;;;;;19.73;17.93;;;25.90;69.20;;;;;;4983601;28;20692;-80
2021/04/21 10:47:24;;;;;;;20.80;18.87;;;26.00;68.20;;;;;;4984870;28;20696;-79
2021/04/21 10:49:56;;;;;;;24.27;21.83;;;26.00;70.10;;;;;;5001016;28;20675;-78
2021/04/21 10:52:28;;;;;;;21.97;19.97;;;26.10;69.40;;;;;;5014388;28;20565;-77
2021/04/21 10:54:59;;;;;;;20.67;18.80;;;26.10;69.10;;;;;;5026076;28;20611;-77
2021/04/21 10:57:35;;;;;;;21.27;19.17;;;26.30;69.80;;;;;;5038753;28;20565;-77
2021/04/21 11:00:15;;;;;;;20.87;18.90;;;26.40;68.80;;;;;;5023859;28;20694;-77
2021/04/21 11:02:45;;;;;;;20.17;18.40;;;26.60;68.80;;;;;;5038288;28;20556;-78
2021/04/21 11:05:11;;;;;;;23.80;21.40;;;26.80;69.20;;;;;;5035535;28;20557;-76
2021/04/21 11:07:38;;;;;;;20.53;18.73;;;27.00;67.80;;;;;;5033555;28;20572;-76
2021/04/21 11:10:09;;;;;;;19.83;18.13;;;27.00;67.10;;;;;;5034129;28;20169;-77
2021/04/21 11:13:02;;;;;;;20.60;18.80;;;27.10;66.20;;;;;;5003695;28;20576;-78
2021/04/21 11:15:37;;;;;;;18.67;17.07;;;27.20;66.00;;;;;;5017254;28;20612;-77
2021/04/21 11:18:10;;;;;;;20.73;19.00;;;27.30;65.40;;;;;;5001737;28;20600;-78
2021/04/21 11:20:59;;;;;;;20.40;18.60;;;27.30;63.60;;;;;;5023282;28;20631;-77
2021/04/21 11:24:01;;;;;;;16.17;14.77;;;27.20;62.50;;;;;;5020174;28;20628;-78
2021/04/21 11:26:40;;;;;;;13.77;12.47;;;27.10;61.70;;;;;;5036843;28;21115;-78
2021/04/21 11:29:24;;;;;;;17.10;15.37;;;26.90;60.80;;;;;;5004286;28;20703;-78
2021/04/21 11:31:51;;;;;;;18.90;17.20;;;26.80;59.60;;;;;;5020296;28;20564;-78
2021/04/21 11:34:32;;;;;;;16.50;15.10;;;26.70;60.20;;;;;;5018811;28;20611;-78
2021/04/21 11:37:15;;;;;;;15.30;13.90;;;26.70;60.40;;;;;;5021597;28;20568;-79
2021/04/21 11:39:44;;;;;;;15.57;14.10;;;26.80;60.40;;;;;;5025318;28;20692;-78
2021/04/21 11:42:49;;;;;;;18.87;17.20;;;27.00;61.40;;;;;;5023731;28;20591;-78
2021/04/21 11:45:22;;;;;;;15.83;14.30;;;27.20;60.40;;;;;;5012177;28;20572;-78
2021/04/21 11:47:53;;;;;;;16.63;15.13;;;27.50;61.00;;;;;;5022680;28;20603;-76
2021/04/21 11:50:30;;;;;;;15.57;14.10;;;27.70;60.50;;;;;;5031176;28;20580;-78
2021/04/21 11:53:02;;;;;;;17.07;15.60;;;27.90;59.70;;;;;;5030939;28;20573;-78
2021/04/21 11:55:36;;;;;;;16.33;14.83;;;28.00;58.50;;;;;;5026222;28;20581;-78
2021/04/21 11:58:13;;;;;;;17.03;14.70;;;28.10;58.10;;;;;;5013341;28;20591;-78
2021/04/21 12:00:52;;;;;;;14.47;13.17;;;28.10;56.40;;;;;;5047592;28;20692;-78
2021/04/21 12:03:26;;;;;;;12.23;11.03;;;28.20;56.70;;;;;;5026659;28;20596;-78
2021/04/21 12:06:09;;;;;;;11.30;10.30;;;28.20;55.00;;;;;;5025977;28;20589;-78
2021/04/21 12:08:41;;;;;;;11.03;10.13;;;28.10;53.70;;;;;;4987579;28;20624;-79
2021/04/21 12:11:08;;;;;;;12.70;11.73;;;28.10;52.60;;;;;;5001701;28;20604;-75
2021/04/21 12:13:46;;;;;;;10.00;9.10;;;28.10;52.60;;;;;;5013571;28;21013;-75
2021/04/21 12:16:17;;;;;;;13.77;12.37;;;28.10;53.00;;;;;;5013815;28;20671;-75
2021/04/21 12:19:02;;;;;;;9.80;8.80;;;28.10;52.10;;;;;;5031433;28;20572;-75
2021/04/21 12:21:35;;;;;;;11.23;10.13;;;28.00;52.20;;;;;;5031323;28;20599;-76
2021/04/21 12:24:01;;;;;;;11.60;10.50;;;28.00;50.90;;;;;;5030482;28;20604;-76
2021/04/21 12:26:30;;;;;;;10.60;9.37;;;27.80;50.00;;;;;;5013239;28;20663;-75
2021/04/21 12:29:02;;;;;;;10.37;9.47;;;27.60;49.80;;;;;;5015680;28;20629;-77
2021/04/21 12:31:30;;;;;;;9.13;8.20;;;27.50;49.40;;;;;;5018089;28;20568;-78
2021/04/21 12:34:02;;;;;;;10.33;9.43;;;27.50;49.80;;;;;;5024048;28;20636;-78
2021/04/21 12:36:31;;;;;;;9.97;9.03;;;27.40;49.30;;;;;;5016308;28;20564;-78
2021/04/21 12:39:06;;;;;;;10.20;9.13;;;27.40;48.50;;;;;;5034232;28;20659;-78
2021/04/21 12:41:32;;;;;;;10.13;9.23;;;27.20;47.60;;;;;;5033459;28;20656;-78
2021/04/21 12:44:14;;;;;;;9.30;8.50;;;27.00;47.50;;;;;;5016482;28;20943;-78
2021/04/21 12:46:43;;;;;;;8.93;8.17;;;26.70;46.90;;;;;;5016127;28;20580;-79
2021/04/21 12:49:09;;;;;;;8.73;7.93;;;26.60;47.00;;;;;;5000083;28;20583;-78
2021/04/21 12:51:44;;;;;;;8.93;8.17;;;26.40;47.20;;;;;;5017053;28;20592;-80
2021/04/21 12:54:29;;;;;;;10.60;9.63;;;26.20;46.10;;;;;;5018722;28;20634;-79
2021/04/21 12:56:55;;;;;;;8.57;7.80;;;26.00;45.90;;;;;;5034116;28;20582;-79
2021/04/21 12:59:21;;;;;;;8.13;7.33;;;25.90;45.50;;;;;;5015839;28;20632;-80